Greenfield, IL

11:54 PM CDT on August 28, 2014 (GMT -0500)
Litchfield | Change Station
CLOSE
Current Station
Airport
Location: Litchfield,
Elevation: 689 ft
Nearby Weather Stations

Elev 689 ft 39.16 °N, 89.67 °W | Updated 19 minutes ago

Clear
Clear
71 °F
Feels Like 71 °F
N
6
Wind Variable Wind from ENE

Today
High -- | Low -- °F
--% Chance of Precip.
Yesterday
High -- | Low -- °F
Precip. -- in
6:25 AM 7:37 PM
Waxing Crescent, 12% visible
Pressure 30.01 in
Visibility 10.0 miles
Clouds Clear
Dew Point 69 °F
Humidity 94%
Rainfall 0.00 in
Snow Depth Not available.
UV 0 out of 12
Pollen 10.20 out of 12
Air Quality Not available.
Flu Activity Not available.
METAR K3LF 290435Z AUTO 07005KT 10SM CLR 22/21 A3001 RMK AO2 T02180208

More Conditions Fewer Conditions

Pressure 30.01 in
Visibility 10.0 miles
Clouds Clear
Dew Point 69 °F
Humidity 94%
Rainfall 0.00 in
Snow Depth Not available.
UV 0 out of 12
Pollen 10.20 out of 12
Air Quality Not available.
Flu Activity Not available.
METAR K3LF 290435Z AUTO 07005KT 10SM CLR 22/21 A3001 RMK AO2 T02180208

More Conditions Fewer Conditions

10-Day Weather Forecast

Almanac

Astronomy

Aug. 28, 2014 Rise Set
Actual Time 6:25 AM CDT 7:37 PM CDT
Civil Twilight 5:57 AM CDT 8:05 PM CDT
Nautical Twilight 5:24 AM CDT 8:38 PM CDT
Astronomical Twilight 4:50 AM CDT 9:12 PM CDT
Moon 9:16 AM CDT (8/28) 9:03 PM CDT (8/28)
Length of Visible Light 14h 07m
Length of Day
13h 12m
Tomorrow will be 2m 26s shorter.
Waxing Crescent, 12% of the Moon is Illuminated
Aug 29
Waxing Crescent
Sep 2
First Quarter
Sep 8
Full
Sep 15
Last Quarter
Sep 24
New

Yesterday's Extremes

State Highs State Lows

Community

WunderPhotos

Upload Photos

1,748,186 photos uploaded!

Nearby

Snow Depth

Station Depth Elevation
No new snow has been reported.

Earthquake Activity

City Distance Mag. Time & Date
No recent earthquake activity has been reported nearby.
Minimum magnitude displayed is 2.5.

Coastal Water Temperatures

Place Temperature
No Stations Reporting

Nearby Weather Stations